createdAt,value
2023-01-01T00:04:13.067Z,8.34
2023-01-01T00:09:28.309Z,8.68
2023-01-01T00:14:26.267Z,8.40
2023-01-01T00:19:23.334Z,8.45
2023-01-01T00:24:20.213Z,8.49
2023-01-01T00:29:17.239Z,8.44
2023-01-01T00:34:15.019Z,7.99
2023-01-01T00:39:11.887Z,8.72
2023-01-01T00:44:08.954Z,8.66
2023-01-01T00:49:05.769Z,8.16
2023-01-01T00:54:03.551Z,8.73
2023-01-01T00:59:01.013Z,8.75
2023-01-01T01:03:58.933Z,8.72
2023-01-01T01:08:55.817Z,8.21
2023-01-01T01:13:57.437Z,8.65
2023-01-01T01:18:59.900Z,8.21
2023-01-01T01:23:59.188Z,8.42
2023-01-01T01:28:57.252Z,8.49
2023-01-01T01:33:54.295Z,8.16
2023-01-01T01:38:51.109Z,8.11
2023-01-01T01:43:52.960Z,8.36
2023-01-01T01:48:52.039Z,8.25
2023-01-01T01:53:54.304Z,8.21
2023-01-01T01:58:51.272Z,7.96
2023-01-01T02:03:58.502Z,8.03
2023-01-01T02:08:57.512Z,7.77
2023-01-01T02:13:56.251Z,7.28
2023-01-01T02:18:59.859Z,7.42
2023-01-01T02:24:21.014Z,7.59
2023-01-01T02:29:29.979Z,7.46
2023-01-01T02:34:31.389Z,7.36
2023-01-01T02:39:32.015Z,7.10
2023-01-01T02:44:35.616Z,7.25
2023-01-01T02:49:32.983Z,7.36
2023-01-01T02:54:37.751Z,7.18
2023-01-01T03:00:02.751Z,7.06
2023-01-01T03:05:08.139Z,7.15
2023-01-01T03:10:14.596Z,7.02
2023-01-01T03:15:21.582Z,7.09
2023-01-01T03:20:24.390Z,7.27
2023-01-01T03:25:25.561Z,6.99
2023-01-01T03:30:24.451Z,7.20
2023-01-01T03:35:24.961Z,7.21
2023-01-01T03:40:22.924Z,7.14
2023-01-01T03:45:25.523Z,7.17
2023-01-01T03:50:28.601Z,7.03
2023-01-01T03:55:32.892Z,7.15
2023-01-01T04:00:34.975Z,6.81
2023-01-01T04:05:35.552Z,7.04
2023-01-01T04:10:35.860Z,6.73
2023-01-01T04:15:35.377Z,7.15
2023-01-01T04:20:32.647Z,6.92
2023-01-01T04:25:29.704Z,6.90
2023-01-01T04:30:27.638Z,6.91
2023-01-01T04:35:25.317Z,7.24
2023-01-01T04:40:22.170Z,6.74
2023-01-01T04:45:18.998Z,7.13
2023-01-01T04:50:16.010Z,7.34
2023-01-01T04:55:13.768Z,7.13
2023-01-01T05:00:11.256Z,7.55
2023-01-01T05:05:08.840Z,7.58
2023-01-01T05:10:06.704Z,7.56
2023-01-01T05:15:05.119Z,7.24
2023-01-01T05:20:03.295Z,7.47
2023-01-01T05:25:00.168Z,7.42
2023-01-01T05:29:58.025Z,7.09
2023-01-01T05:34:56.219Z,7.66
2023-01-01T05:39:53.117Z,7.93
2023-01-01T05:44:50.035Z,7.52
2023-01-01T05:49:47.049Z,7.87
2023-01-01T05:54:44.623Z,7.72
2023-01-01T05:59:41.486Z,7.63
2023-01-01T06:04:38.378Z,8.32
2023-01-01T06:10:23.333Z,8.04
2023-01-01T06:16:30.534Z,8.27
2023-01-01T06:22:12.523Z,7.95
2023-01-01T06:28:26.841Z,8.44
2023-01-01T06:33:54.150Z,8.43
2023-01-01T06:45:00.520Z,8.52
2023-01-01T06:49:58.035Z,8.80
2023-01-01T06:56:00.051Z,8.63
2023-01-01T07:01:11.962Z,8.25
2023-01-01T07:06:09.975Z,8.31
2023-01-01T07:11:06.938Z,8.47
2023-01-01T07:16:12.110Z,8.43
2023-01-01T07:21:29.441Z,8.70
2023-01-01T07:26:29.043Z,9.05
2023-01-01T07:31:26.094Z,9.42
2023-01-01T07:36:24.014Z,9.55
2023-01-01T07:41:20.960Z,9.65
2023-01-01T07:46:19.121Z,9.50
2023-01-01T07:51:23.729Z,10.35
2023-01-01T07:56:31.248Z,9.96
2023-01-01T08:01:30.781Z,10.20
2023-01-01T08:12:24.433Z,10.82
2023-01-01T08:22:52.733Z,11.17
2023-01-01T08:27:55.479Z,11.09
2023-01-01T08:32:53.175Z,11.50
2023-01-01T08:37:56.178Z,11.75
2023-01-01T08:42:54.801Z,11.45
2023-01-01T08:47:51.857Z,11.92
2023-01-01T08:52:53.374Z,11.58
2023-01-01T08:58:14.174Z,11.96
2023-01-01T09:03:11.521Z,12.10
2023-01-01T09:08:09.296Z,12.40
2023-01-01T09:13:12.745Z,12.30
2023-01-01T09:18:14.050Z,12.34
2023-01-01T09:23:19.524Z,12.86
2023-01-01T09:28:23.364Z,12.83
2023-01-01T09:33:23.079Z,13.10
2023-01-01T09:38:21.078Z,13.11
2023-01-01T09:43:34.995Z,13.06
2023-01-01T09:48:40.698Z,13.20
2023-01-01T09:53:45.725Z,13.10
2023-01-01T09:58:44.413Z,12.74
2023-01-01T10:03:48.037Z,12.87
2023-01-01T10:09:00.636Z,13.20
2023-01-01T10:14:01.531Z,13.24
2023-01-01T10:19:06.052Z,13.10
2023-01-01T10:24:11.110Z,13.12
2023-01-01T10:29:19.779Z,13.49
2023-01-01T10:34:20.282Z,13.38
2023-01-01T10:39:19.961Z,13.57
2023-01-01T10:44:25.707Z,13.62
2023-01-01T10:49:24.395Z,13.05
2023-01-01T10:54:32.864Z,13.59
2023-01-01T10:59:37.169Z,13.70
2023-01-01T11:04:34.428Z,13.85
2023-01-01T11:09:31.950Z,13.72
2023-01-01T11:14:34.748Z,13.66
2023-01-01T11:19:37.004Z,14.58
2023-01-01T11:24:35.951Z,15.00
2023-01-01T11:29:33.370Z,15.57
2023-01-01T11:34:36.084Z,16.01
2023-01-01T11:39:36.753Z,16.19
2023-01-01T11:44:39.112Z,16.17
2023-01-01T11:49:37.393Z,16.50
2023-01-01T11:54:36.909Z,16.48
2023-01-01T12:00:10.494Z,16.70
2023-01-01T12:05:16.061Z,16.74
2023-01-01T12:10:20.415Z,16.66
2023-01-01T12:15:24.551Z,16.91
2023-01-01T12:20:26.373Z,16.83
2023-01-01T12:25:23.507Z,16.90
2023-01-01T12:30:26.228Z,17.14
2023-01-01T12:35:43.787Z,17.20
2023-01-01T12:40:51.160Z,17.07
2023-01-01T12:46:20.464Z,17.08
2023-01-01T12:51:38.837Z,16.94
2023-01-01T12:56:46.150Z,17.18
2023-01-01T13:01:44.144Z,16.54
2023-01-01T13:06:50.046Z,16.63
2023-01-01T13:11:53.764Z,16.48
2023-01-01T13:16:53.205Z,16.64
2023-01-01T13:21:51.020Z,16.69
2023-01-01T13:26:51.663Z,16.44
2023-01-01T13:32:06.991Z,16.01
2023-01-01T13:37:31.991Z,16.24
2023-01-01T13:42:44.234Z,16.01
2023-01-01T13:48:12.670Z,15.47
2023-01-01T13:53:28.573Z,15.64
2023-01-01T13:59:11.711Z,15.32
2023-01-01T14:04:29.671Z,15.29
2023-01-01T14:09:31.288Z,14.63
2023-01-01T14:14:28.925Z,14.81
2023-01-01T14:19:27.565Z,14.69
2023-01-01T14:24:26.331Z,14.47
2023-01-01T14:29:27.933Z,14.21
2023-01-01T14:34:28.103Z,13.75
2023-01-01T14:39:28.000Z,14.23
2023-01-01T14:44:32.779Z,14.09
2023-01-01T14:49:34.929Z,13.67
2023-01-01T14:54:36.995Z,13.57
2023-01-01T14:59:36.237Z,13.39
2023-01-01T15:04:36.742Z,13.25
2023-01-01T15:09:37.545Z,13.26
2023-01-01T15:14:38.303Z,12.60
2023-01-01T15:19:36.946Z,12.93
2023-01-01T15:24:36.547Z,13.09
2023-01-01T15:29:35.918Z,12.92
2023-01-01T15:34:42.157Z,12.43
2023-01-01T15:39:47.002Z,12.54
2023-01-01T15:44:44.487Z,12.50
2023-01-01T15:49:43.065Z,12.00
2023-01-01T15:54:46.146Z,12.08
2023-01-01T15:59:43.753Z,12.14
2023-01-01T16:04:45.771Z,11.95
2023-01-01T16:09:43.901Z,11.93
2023-01-01T16:14:41.342Z,11.39
2023-01-01T16:19:38.405Z,11.66
2023-01-01T16:24:36.242Z,11.53
2023-01-01T16:29:33.224Z,11.57
2023-01-01T16:34:30.325Z,10.91
2023-01-01T16:39:27.159Z,11.15
2023-01-01T16:44:28.126Z,11.15
2023-01-01T16:49:25.579Z,11.03
2023-01-01T16:54:24.666Z,10.74
2023-01-01T16:59:26.605Z,10.78
2023-01-01T17:04:25.894Z,10.80
2023-01-01T17:09:23.078Z,10.40
2023-01-01T17:14:21.520Z,10.35
2023-01-01T17:19:25.421Z,10.46
2023-01-01T17:24:38.839Z,10.81
2023-01-01T17:29:45.479Z,10.58
2023-01-01T17:34:43.399Z,10.72
2023-01-01T17:39:44.068Z,10.39
2023-01-01T17:44:50.367Z,10.54
2023-01-01T17:49:50.126Z,10.32
2023-01-01T17:54:51.181Z,10.46
2023-01-01T17:59:48.369Z,10.54
2023-01-01T18:04:45.417Z,10.35
2023-01-01T18:09:44.002Z,10.08
2023-01-01T18:14:42.001Z,10.45
2023-01-01T18:19:38.850Z,10.42
2023-01-01T18:24:35.947Z,10.37
2023-01-01T18:29:33.392Z,10.32
2023-01-01T18:34:32.335Z,10.27
2023-01-01T18:39:32.745Z,10.16
2023-01-01T18:44:32.030Z,9.80
2023-01-01T18:49:30.163Z,9.83
2023-01-01T18:54:29.656Z,9.80
2023-01-01T18:59:27.277Z,10.04
2023-01-01T19:04:24.135Z,10.09
2023-01-01T19:09:22.935Z,9.93
2023-01-01T19:14:28.180Z,9.75
2023-01-01T19:19:27.802Z,10.05
2023-01-01T19:24:27.475Z,10.02
2023-01-01T19:29:29.936Z,9.89
2023-01-01T19:34:26.735Z,9.62
2023-01-01T19:39:23.698Z,9.93
2023-01-01T19:44:25.420Z,9.58
2023-01-01T19:49:25.021Z,9.86
2023-01-01T19:54:22.501Z,9.83
2023-01-01T19:59:20.310Z,9.70
2023-01-01T20:04:17.457Z,9.43
2023-01-01T20:09:16.078Z,9.50
2023-01-01T20:14:46.308Z,9.68
2023-01-01T20:19:43.774Z,9.65
2023-01-01T20:24:42.360Z,9.16
2023-01-01T20:29:50.314Z,9.33
2023-01-01T20:34:47.870Z,9.43
2023-01-01T20:39:49.691Z,9.41
2023-01-01T20:44:46.638Z,9.58
2023-01-01T20:49:43.971Z,9.38
2023-01-01T20:54:41.016Z,9.52
2023-01-01T20:59:38.886Z,9.16
2023-01-01T21:04:37.641Z,9.34
2023-01-01T21:09:34.709Z,9.27
2023-01-01T21:14:32.002Z,9.13
2023-01-01T21:19:29.531Z,9.36
2023-01-01T21:24:28.407Z,9.39
2023-01-01T21:29:27.244Z,9.37
2023-01-01T21:34:32.072Z,9.31
2023-01-01T21:39:30.871Z,9.15
2023-01-01T21:44:27.955Z,8.84
2023-01-01T21:55:47.909Z,9.17
2023-01-01T22:00:45.311Z,9.21
2023-01-01T22:05:42.326Z,8.52
2023-01-01T22:10:40.005Z,9.15
2023-01-01T22:15:39.978Z,8.83
2023-01-01T22:20:39.083Z,9.05
2023-01-01T22:25:39.697Z,8.96
2023-01-01T22:30:41.199Z,8.60
2023-01-01T22:35:38.081Z,8.81
2023-01-01T22:40:37.245Z,8.90
2023-01-01T22:45:39.423Z,8.60
2023-01-01T22:50:36.659Z,8.50
2023-01-01T22:55:33.401Z,8.40
2023-01-01T23:00:30.669Z,8.68
2023-01-01T23:05:28.587Z,8.75
2023-01-01T23:10:25.508Z,8.75
2023-01-01T23:15:40.392Z,8.38
2023-01-01T23:20:37.965Z,8.66
2023-01-01T23:25:34.778Z,8.64
2023-01-01T23:30:35.117Z,8.63
2023-01-01T23:35:32.183Z,8.63
2023-01-01T23:40:29.669Z,8.49
2023-01-01T23:45:28.850Z,8.60
2023-01-01T23:50:25.798Z,8.18
2023-01-01T23:55:22.581Z,8.57
